createdAt,value
2019-01-20T00:00:39.442Z,45.00
2019-01-20T00:01:39.432Z,67.50
2019-01-20T00:02:39.516Z,90.00
2019-01-20T00:03:39.432Z,45.00
2019-01-20T00:04:39.438Z,67.50
2019-01-20T00:05:39.430Z,45.00
2019-01-20T00:06:39.441Z,67.50
2019-01-20T00:07:39.504Z,45.00
2019-01-20T00:08:39.434Z,45.00
2019-01-20T00:09:39.437Z,22.50
2019-01-20T00:10:39.508Z,45.00
2019-01-20T00:11:39.513Z,22.50
2019-01-20T00:12:39.517Z,22.50
2019-01-20T00:13:39.471Z,22.50
2019-01-20T00:14:39.514Z,22.50
2019-01-20T00:15:39.509Z,22.50
2019-01-20T00:16:39.442Z,45.00
2019-01-20T00:17:39.517Z,22.50
2019-01-20T00:18:39.489Z,45.00
2019-01-20T00:19:39.486Z,45.00
2019-01-20T00:20:39.492Z,67.50
2019-01-20T00:21:39.403Z,112.50
2019-01-20T00:22:39.452Z,45.00
2019-01-20T00:23:39.405Z,45.00
2019-01-20T00:24:39.398Z,67.50
2019-01-20T00:25:39.381Z,45.00
2019-01-20T00:26:39.505Z,45.00
2019-01-20T00:27:39.442Z,67.50
2019-01-20T00:28:39.433Z,67.50
2019-01-20T00:29:39.414Z,45.00
2019-01-20T00:30:39.436Z,45.00
2019-01-20T00:31:39.358Z,45.00
2019-01-20T00:32:39.473Z,45.00
2019-01-20T00:33:39.435Z,45.00
2019-01-20T00:34:39.470Z,45.00
2019-01-20T00:35:39.389Z,90.00
2019-01-20T00:36:39.493Z,45.00
2019-01-20T00:37:39.367Z,67.50
2019-01-20T00:38:39.525Z,112.50
2019-01-20T00:39:39.456Z,67.50
2019-01-20T00:40:39.455Z,135.00
2019-01-20T00:41:39.539Z,135.00
2019-01-20T00:42:39.528Z,67.50
2019-01-20T00:43:39.456Z,45.00
2019-01-20T00:44:39.455Z,45.00
2019-01-20T00:45:39.471Z,22.50
2019-01-20T00:46:39.461Z,22.50
2019-01-20T00:47:39.460Z,45.00
2019-01-20T00:48:39.543Z,45.00
2019-01-20T00:49:39.538Z,45.00
2019-01-20T00:50:39.465Z,45.00
2019-01-20T00:51:39.523Z,22.50
2019-01-20T00:52:39.534Z,202.50
2019-01-20T00:53:39.472Z,90.00
2019-01-20T00:54:39.467Z,22.50
2019-01-20T00:55:39.475Z,22.50
2019-01-20T00:56:39.494Z,22.50
2019-01-20T00:57:39.471Z,0.00
2019-01-20T00:58:39.555Z,247.50
2019-01-20T00:59:39.474Z,22.50
2019-01-20T01:00:39.483Z,22.50
2019-01-20T01:01:39.546Z,22.50
2019-01-20T01:02:39.551Z,45.00
2019-01-20T01:03:39.549Z,45.00
2019-01-20T01:04:39.472Z,22.50
2019-01-20T01:05:39.484Z,22.50
2019-01-20T01:06:39.482Z,45.00
2019-01-20T01:07:40.188Z,45.00
2019-01-20T01:08:39.477Z,45.00
2019-01-20T01:09:39.491Z,45.00
2019-01-20T01:10:39.541Z,45.00
2019-01-20T01:11:39.557Z,45.00
2019-01-20T01:12:39.550Z,45.00
2019-01-20T01:13:39.558Z,45.00
2019-01-20T01:14:39.558Z,45.00
2019-01-20T01:15:39.485Z,45.00
2019-01-20T01:16:39.494Z,45.00
2019-01-20T01:17:39.485Z,135.00
2019-01-20T01:18:39.555Z,135.00
2019-01-20T01:19:39.484Z,90.00
2019-01-20T01:20:39.524Z,67.50
2019-01-20T01:21:39.498Z,45.00
2019-01-20T01:22:39.560Z,45.00
2019-01-20T01:23:39.489Z,67.50
2019-01-20T01:24:39.527Z,67.50
2019-01-20T01:25:39.485Z,67.50
2019-01-20T01:26:39.616Z,67.50
2019-01-20T01:27:39.448Z,45.00
2019-01-20T01:28:39.506Z,22.50
2019-01-20T01:29:39.535Z,22.50
2019-01-20T01:30:39.486Z,22.50
2019-01-20T01:31:39.502Z,22.50
2019-01-20T01:32:39.450Z,22.50
2019-01-20T01:33:39.459Z,22.50
2019-01-20T01:34:39.418Z,22.50
2019-01-20T01:35:39.407Z,22.50
2019-01-20T01:36:39.459Z,22.50
2019-01-20T01:37:39.412Z,22.50
2019-01-20T01:38:39.389Z,22.50
2019-01-20T01:39:39.464Z,22.50
2019-01-20T01:40:39.484Z,45.00
2019-01-20T01:41:39.502Z,45.00
2019-01-20T01:42:39.453Z,45.00
2019-01-20T01:43:39.488Z,22.50
2019-01-20T01:44:39.484Z,22.50
2019-01-20T01:45:39.473Z,247.50
2019-01-20T01:46:39.540Z,225.00
2019-01-20T01:47:39.471Z,247.50
2019-01-20T01:48:39.578Z,45.00
2019-01-20T01:49:39.571Z,22.50
2019-01-20T01:50:39.521Z,45.00
2019-01-20T01:51:39.506Z,22.50
2019-01-20T01:52:39.469Z,22.50
2019-01-20T01:53:39.532Z,22.50
2019-01-20T01:54:39.580Z,22.50
2019-01-20T01:55:39.588Z,45.00
2019-01-20T01:56:39.580Z,45.00
2019-01-20T01:57:39.510Z,22.50
2019-01-20T01:58:39.585Z,45.00
2019-01-20T01:59:39.523Z,67.50
2019-01-20T02:00:39.513Z,45.00
2019-01-20T02:01:39.470Z,67.50
2019-01-20T02:02:39.515Z,45.00
2019-01-20T02:03:39.596Z,22.50
2019-01-20T02:04:39.590Z,22.50
2019-01-20T02:05:39.589Z,22.50
2019-01-20T02:06:39.516Z,22.50
2019-01-20T02:07:39.594Z,22.50
2019-01-20T02:08:39.588Z,45.00
2019-01-20T02:09:39.589Z,45.00
2019-01-20T02:10:39.544Z,22.50
2019-01-20T02:11:46.641Z,22.50
2019-01-20T02:12:39.486Z,45.00
2019-01-20T02:13:39.614Z,45.00
2019-01-20T02:14:39.597Z,45.00
2019-01-20T02:15:39.528Z,67.50
2019-01-20T02:16:39.598Z,67.50
2019-01-20T02:17:39.601Z,67.50
2019-01-20T02:18:39.522Z,45.00
2019-01-20T02:19:39.556Z,45.00
2019-01-20T02:20:39.523Z,45.00
2019-01-20T02:21:39.685Z,45.00
2019-01-20T02:22:39.602Z,45.00
2019-01-20T02:23:39.604Z,45.00
2019-01-20T02:24:39.543Z,22.50
2019-01-20T02:25:39.547Z,45.00
2019-01-20T02:26:39.531Z,45.00
2019-01-20T02:27:39.600Z,45.00
2019-01-20T02:28:39.609Z,22.50
2019-01-20T02:29:39.623Z,22.50
2019-01-20T02:30:39.612Z,67.50
2019-01-20T02:31:39.532Z,67.50
2019-01-20T02:32:39.605Z,67.50
2019-01-20T02:33:39.614Z,45.00
2019-01-20T02:34:39.607Z,45.00
2019-01-20T02:35:39.552Z,45.00
2019-01-20T02:36:39.541Z,45.00
2019-01-20T02:37:39.623Z,45.00
2019-01-20T02:38:39.576Z,45.00
2019-01-20T02:39:39.542Z,45.00
2019-01-20T02:40:39.618Z,67.50
2019-01-20T02:41:39.605Z,67.50
2019-01-20T02:42:39.607Z,67.50
2019-01-20T02:43:39.573Z,135.00
2019-01-20T02:44:39.542Z,67.50
2019-01-20T02:45:39.542Z,45.00
2019-01-20T02:46:39.550Z,45.00
2019-01-20T02:47:39.615Z,112.50
2019-01-20T02:48:39.619Z,22.50
2019-01-20T02:49:39.511Z,67.50
2019-01-20T02:50:39.553Z,90.00
2019-01-20T02:51:39.625Z,292.50
2019-01-20T02:52:39.546Z,202.50
2019-01-20T02:53:39.547Z,67.50
2019-01-20T02:54:39.616Z,112.50
2019-01-20T02:55:39.554Z,247.50
2019-01-20T02:56:39.561Z,270.00
2019-01-20T02:57:39.630Z,90.00
2019-01-20T02:58:39.508Z,135.00
2019-01-20T02:59:39.539Z,135.00
2019-01-20T03:00:39.498Z,270.00
2019-01-20T03:01:39.540Z,135.00
2019-01-20T03:02:39.615Z,90.00
2019-01-20T03:03:39.545Z,90.00
2019-01-20T03:04:39.552Z,225.00
2019-01-20T03:05:39.619Z,90.00
2019-01-20T03:06:39.548Z,67.50
2019-01-20T03:07:39.630Z,45.00
2019-01-20T03:08:39.544Z,315.00
2019-01-20T03:09:39.628Z,90.00
2019-01-20T03:10:39.553Z,67.50
2019-01-20T03:11:39.622Z,67.50
2019-01-20T03:12:39.567Z,22.50
2019-01-20T03:13:39.624Z,22.50
2019-01-20T03:14:39.626Z,22.50
2019-01-20T03:15:39.564Z,45.00
2019-01-20T03:16:39.626Z,45.00
2019-01-20T03:17:39.567Z,22.50
2019-01-20T03:18:39.505Z,22.50
2019-01-20T03:19:39.499Z,45.00
2019-01-20T03:20:39.502Z,45.00
2019-01-20T03:21:39.534Z,22.50
2019-01-20T03:22:39.615Z,45.00
2019-01-20T03:23:39.620Z,45.00
2019-01-20T03:24:39.632Z,22.50
2019-01-20T03:25:39.503Z,22.50
2019-01-20T03:26:39.532Z,67.50
2019-01-20T03:27:39.678Z,157.50
2019-01-20T03:28:39.632Z,135.00
2019-01-20T03:29:39.573Z,90.00
2019-01-20T03:30:39.636Z,67.50
2019-01-20T03:31:39.575Z,112.50
2019-01-20T03:32:39.640Z,67.50
2019-01-20T03:33:39.604Z,67.50
2019-01-20T03:34:39.568Z,67.50
2019-01-20T03:35:39.638Z,45.00
2019-01-20T03:36:39.565Z,45.00
2019-01-20T03:37:39.639Z,45.00
2019-01-20T03:38:39.595Z,22.50
2019-01-20T03:39:39.704Z,22.50
2019-01-20T03:40:39.581Z,22.50
2019-01-20T03:41:39.588Z,45.00
2019-01-20T03:42:39.584Z,45.00
2019-01-20T03:43:39.726Z,22.50
2019-01-20T03:44:39.604Z,22.50
2019-01-20T03:45:39.659Z,22.50
2019-01-20T03:46:39.594Z,22.50
2019-01-20T03:47:39.658Z,22.50
2019-01-20T03:48:39.549Z,22.50
2019-01-20T03:49:39.657Z,22.50
2019-01-20T03:50:39.559Z,22.50
2019-01-20T03:51:39.585Z,22.50
2019-01-20T03:52:39.648Z,67.50
2019-01-20T03:53:39.605Z,22.50
2019-01-20T03:54:39.655Z,22.50
2019-01-20T03:55:39.643Z,45.00
2019-01-20T03:56:39.639Z,45.00
2019-01-20T03:57:39.642Z,67.50
2019-01-20T03:58:39.650Z,45.00
2019-01-20T03:59:39.587Z,45.00
2019-01-20T04:00:39.662Z,67.50
2019-01-20T04:01:39.583Z,45.00
2019-01-20T04:02:39.658Z,45.00
2019-01-20T04:03:39.597Z,45.00
2019-01-20T04:04:39.665Z,45.00
2019-01-20T04:05:39.594Z,45.00
2019-01-20T04:06:39.661Z,45.00
2019-01-20T04:07:39.594Z,45.00
2019-01-20T04:08:39.667Z,90.00
2019-01-20T04:09:39.589Z,90.00
2019-01-20T04:10:39.607Z,67.50
2019-01-20T04:11:39.652Z,45.00
2019-01-20T04:12:39.546Z,67.50
2019-01-20T04:13:39.610Z,67.50
2019-01-20T04:14:39.666Z,67.50
2019-01-20T04:15:39.610Z,67.50
2019-01-20T04:16:39.574Z,67.50
2019-01-20T04:17:39.591Z,67.50
2019-01-20T04:18:39.600Z,45.00
2019-01-20T04:19:39.702Z,45.00
2019-01-20T04:20:39.680Z,45.00
2019-01-20T04:21:39.620Z,45.00
2019-01-20T04:22:39.619Z,45.00
2019-01-20T04:23:39.746Z,45.00
2019-01-20T04:24:39.615Z,45.00
2019-01-20T04:25:39.690Z,45.00
2019-01-20T04:26:39.624Z,45.00
2019-01-20T04:27:39.601Z,45.00
2019-01-20T04:28:39.632Z,45.00
2019-01-20T04:29:39.622Z,22.50
2019-01-20T04:30:39.615Z,22.50
2019-01-20T04:31:39.624Z,45.00
2019-01-20T04:32:39.707Z,45.00
2019-01-20T04:33:39.625Z,45.00
2019-01-20T04:34:39.694Z,45.00
2019-01-20T04:35:39.630Z,45.00
2019-01-20T04:36:39.637Z,45.00
2019-01-20T04:37:39.644Z,45.00
2019-01-20T04:38:39.692Z,45.00
2019-01-20T04:39:39.698Z,45.00
2019-01-20T04:40:39.624Z,45.00
2019-01-20T04:41:39.628Z,45.00
2019-01-20T04:42:39.626Z,45.00
2019-01-20T04:43:39.631Z,45.00
2019-01-20T04:44:39.638Z,45.00
2019-01-20T04:45:39.735Z,45.00
2019-01-20T04:46:39.701Z,45.00
2019-01-20T04:47:39.632Z,67.50
2019-01-20T04:48:39.642Z,67.50
2019-01-20T04:49:39.650Z,67.50
2019-01-20T04:50:39.704Z,112.50
2019-01-20T04:51:39.702Z,90.00
2019-01-20T04:52:39.713Z,67.50
2019-01-20T04:53:39.633Z,67.50
2019-01-20T04:54:39.710Z,45.00
2019-01-20T04:55:39.755Z,22.50
2019-01-20T04:56:39.634Z,0.00
2019-01-20T04:57:39.715Z,22.50
2019-01-20T04:58:39.647Z,22.50
2019-01-20T04:59:39.638Z,22.50
2019-01-20T05:00:39.735Z,45.00
2019-01-20T05:01:39.637Z,45.00
2019-01-20T05:02:39.645Z,45.00
2019-01-20T05:03:39.642Z,45.00
2019-01-20T05:04:39.644Z,45.00
2019-01-20T05:05:39.754Z,45.00
2019-01-20T05:06:39.718Z,45.00
2019-01-20T05:07:39.674Z,45.00
2019-01-20T05:08:39.714Z,45.00
2019-01-20T05:09:39.668Z,45.00
2019-01-20T05:10:39.597Z,22.50
2019-01-20T05:11:39.577Z,22.50
2019-01-20T05:12:39.656Z,22.50
2019-01-20T05:13:39.562Z,45.00
2019-01-20T05:14:39.595Z,67.50
2019-01-20T05:15:39.694Z,67.50
2019-01-20T05:16:39.583Z,67.50
2019-01-20T05:17:39.634Z,45.00
2019-01-20T05:18:39.690Z,67.50
2019-01-20T05:19:39.650Z,45.00
2019-01-20T05:20:39.733Z,45.00
2019-01-20T05:21:39.722Z,45.00
2019-01-20T05:22:39.655Z,45.00
2019-01-20T05:23:39.657Z,45.00
2019-01-20T05:24:39.726Z,45.00
2019-01-20T05:25:39.730Z,45.00
2019-01-20T05:26:39.728Z,45.00
2019-01-20T05:27:39.654Z,45.00
2019-01-20T05:28:39.670Z,45.00
2019-01-20T05:29:39.720Z,67.50
2019-01-20T05:30:39.647Z,67.50
2019-01-20T05:31:39.724Z,45.00
2019-01-20T05:32:39.650Z,45.00
2019-01-20T05:33:39.734Z,45.00
2019-01-20T05:34:39.659Z,67.50
2019-01-20T05:35:39.724Z,67.50
2019-01-20T05:36:39.653Z,67.50
2019-01-20T05:37:39.722Z,45.00
2019-01-20T05:38:39.690Z,45.00
2019-01-20T05:39:39.682Z,22.50
2019-01-20T05:40:39.675Z,22.50
2019-01-20T05:41:39.678Z,45.00
2019-01-20T05:42:46.034Z,45.00
2019-01-20T05:43:39.679Z,45.00
2019-01-20T05:44:39.678Z,45.00
2019-01-20T05:45:39.700Z,22.50
2019-01-20T05:46:39.720Z,22.50
2019-01-20T05:47:39.675Z,45.00
2019-01-20T05:48:39.749Z,22.50
2019-01-20T05:49:39.701Z,22.50
2019-01-20T05:50:39.751Z,22.50
2019-01-20T05:51:39.672Z,22.50
2019-01-20T05:52:39.743Z,22.50
2019-01-20T05:53:39.675Z,45.00
2019-01-20T05:54:39.745Z,45.00
2019-01-20T05:55:39.685Z,90.00
2019-01-20T05:56:39.690Z,112.50
2019-01-20T05:57:39.754Z,67.50
2019-01-20T05:58:39.683Z,45.00
2019-01-20T05:59:39.734Z,45.00
2019-01-20T06:00:39.732Z,45.00
2019-01-20T06:01:39.642Z,45.00
2019-01-20T06:02:39.737Z,45.00
2019-01-20T06:03:39.648Z,67.50
2019-01-20T06:04:39.696Z,67.50
2019-01-20T06:05:39.696Z,67.50
2019-01-20T06:06:39.708Z,90.00
2019-01-20T06:07:39.742Z,90.00
2019-01-20T06:08:39.648Z,67.50
2019-01-20T06:09:39.730Z,45.00
2019-01-20T06:10:39.716Z,45.00
2019-01-20T06:11:39.688Z,45.00
2019-01-20T06:12:39.649Z,45.00
2019-01-20T06:13:39.623Z,22.50
2019-01-20T06:14:39.700Z,22.50
2019-01-20T06:15:39.737Z,22.50
2019-01-20T06:16:39.657Z,45.00
2019-01-20T06:17:39.724Z,45.00
2019-01-20T06:18:39.629Z,45.00
2019-01-20T06:19:39.764Z,45.00
2019-01-20T06:20:39.721Z,45.00
2019-01-20T06:21:39.748Z,45.00
2019-01-20T06:22:39.666Z,45.00
2019-01-20T06:23:39.746Z,67.50
2019-01-20T06:24:39.721Z,67.50
2019-01-20T06:25:39.656Z,67.50
2019-01-20T06:26:39.668Z,67.50
2019-01-20T06:27:39.644Z,90.00
2019-01-20T06:28:39.754Z,67.50
2019-01-20T06:29:39.722Z,90.00
2019-01-20T06:30:39.769Z,67.50
2019-01-20T06:31:39.771Z,67.50
2019-01-20T06:32:39.780Z,67.50
2019-01-20T06:33:39.730Z,67.50
2019-01-20T06:34:39.702Z,45.00
2019-01-20T06:35:39.780Z,22.50
2019-01-20T06:36:39.875Z,45.00
2019-01-20T06:37:39.767Z,45.00
2019-01-20T06:38:39.707Z,45.00
2019-01-20T06:39:39.775Z,67.50
2019-01-20T06:40:39.837Z,67.50
2019-01-20T06:41:39.777Z,90.00
2019-01-20T06:42:39.711Z,67.50
2019-01-20T06:43:39.781Z,67.50
2019-01-20T06:44:39.777Z,67.50
2019-01-20T06:45:39.724Z,45.00
2019-01-20T06:46:39.781Z,22.50
2019-01-20T06:47:39.713Z,45.00
2019-01-20T06:48:39.788Z,22.50
2019-01-20T06:49:39.790Z,22.50
2019-01-20T06:50:39.783Z,45.00
2019-01-20T06:51:39.718Z,45.00
2019-01-20T06:52:39.790Z,45.00
2019-01-20T06:53:39.800Z,45.00
2019-01-20T06:54:39.722Z,45.00
2019-01-20T06:55:39.787Z,22.50
2019-01-20T06:56:39.721Z,22.50
2019-01-20T06:57:39.715Z,22.50
2019-01-20T06:58:39.731Z,22.50
2019-01-20T06:59:39.723Z,22.50
2019-01-20T07:00:39.787Z,22.50
2019-01-20T07:01:39.810Z,22.50
2019-01-20T07:02:39.723Z,22.50
2019-01-20T07:03:39.726Z,45.00
2019-01-20T07:04:39.814Z,45.00
2019-01-20T07:05:39.796Z,45.00
2019-01-20T07:06:39.736Z,67.50
2019-01-20T07:07:39.726Z,67.50
2019-01-20T07:08:39.797Z,45.00
2019-01-20T07:09:39.728Z,45.00
2019-01-20T07:10:39.795Z,45.00
2019-01-20T07:11:39.747Z,45.00
2019-01-20T07:12:39.797Z,45.00
2019-01-20T07:13:39.738Z,45.00
2019-01-20T07:14:39.731Z,45.00
2019-01-20T07:15:39.802Z,45.00
2019-01-20T07:16:39.744Z,45.00
2019-01-20T07:17:39.805Z,45.00
2019-01-20T07:18:39.735Z,45.00
2019-01-20T07:19:39.798Z,45.00
2019-01-20T07:20:39.727Z,45.00
2019-01-20T07:21:39.798Z,45.00
2019-01-20T07:22:39.727Z,45.00
2019-01-20T07:23:39.798Z,45.00
2019-01-20T07:24:39.800Z,45.00
2019-01-20T07:25:39.799Z,45.00
2019-01-20T07:26:39.797Z,45.00
2019-01-20T07:27:39.800Z,45.00
2019-01-20T07:28:39.712Z,45.00
2019-01-20T07:29:39.821Z,45.00
2019-01-20T07:30:39.740Z,45.00
2019-01-20T07:31:39.704Z,45.00
2019-01-20T07:32:39.795Z,45.00
2019-01-20T07:33:39.753Z,45.00
2019-01-20T07:34:39.814Z,45.00
2019-01-20T07:35:39.819Z,45.00
2019-01-20T07:36:39.751Z,112.50
2019-01-20T07:37:39.757Z,90.00
2019-01-20T07:38:39.745Z,67.50
2019-01-20T07:39:39.753Z,90.00
2019-01-20T07:40:39.748Z,112.50
2019-01-20T07:41:39.823Z,112.50
2019-01-20T07:42:39.748Z,90.00
2019-01-20T07:43:39.823Z,90.00
2019-01-20T07:44:39.747Z,90.00
2019-01-20T07:45:39.755Z,90.00
2019-01-20T07:46:39.825Z,90.00
2019-01-20T07:47:39.757Z,67.50
2019-01-20T07:48:39.830Z,45.00
2019-01-20T07:49:39.761Z,45.00
2019-01-20T07:50:39.798Z,22.50
2019-01-20T07:51:39.821Z,22.50
2019-01-20T07:52:39.769Z,22.50
2019-01-20T07:53:39.759Z,45.00
2019-01-20T07:54:39.716Z,45.00
2019-01-20T07:55:39.833Z,45.00
2019-01-20T07:56:39.827Z,45.00
2019-01-20T07:57:39.757Z,45.00
2019-01-20T07:58:39.828Z,45.00
2019-01-20T07:59:39.760Z,45.00
2019-01-20T08:00:39.849Z,45.00
2019-01-20T08:01:39.764Z,45.00
2019-01-20T08:02:39.852Z,67.50
2019-01-20T08:03:39.840Z,67.50
2019-01-20T08:04:39.776Z,90.00
2019-01-20T08:05:39.827Z,90.00
2019-01-20T08:06:39.768Z,90.00
2019-01-20T08:07:39.769Z,90.00
2019-01-20T08:08:39.840Z,67.50
2019-01-20T08:09:39.769Z,67.50
2019-01-20T08:10:39.767Z,67.50
2019-01-20T08:11:40.832Z,45.00
2019-01-20T08:12:39.791Z,67.50
2019-01-20T08:13:39.773Z,67.50
2019-01-20T08:14:39.837Z,67.50
2019-01-20T08:15:39.850Z,45.00
2019-01-20T08:16:39.772Z,45.00
2019-01-20T08:17:39.841Z,45.00
2019-01-20T08:18:39.786Z,45.00
2019-01-20T08:19:39.836Z,22.50
2019-01-20T08:20:39.838Z,22.50
2019-01-20T08:21:39.842Z,22.50
2019-01-20T08:22:39.792Z,22.50
2019-01-20T08:23:39.836Z,22.50
2019-01-20T08:24:39.788Z,22.50
2019-01-20T08:25:39.751Z,45.00
2019-01-20T08:26:39.741Z,45.00
2019-01-20T08:27:39.733Z,45.00
2019-01-20T08:28:39.838Z,45.00
2019-01-20T08:29:39.833Z,45.00
2019-01-20T08:30:39.739Z,45.00
2019-01-20T08:31:39.808Z,22.50
2019-01-20T08:32:39.720Z,22.50
2019-01-20T08:33:39.727Z,22.50
2019-01-20T08:34:39.806Z,22.50
2019-01-20T08:35:39.789Z,22.50
2019-01-20T08:36:39.849Z,22.50
2019-01-20T08:37:39.755Z,22.50
2019-01-20T08:38:39.847Z,22.50
2019-01-20T08:39:39.794Z,22.50
2019-01-20T08:40:39.893Z,22.50
2019-01-20T08:41:39.790Z,22.50
2019-01-20T08:42:40.214Z,180.00
2019-01-20T08:43:39.792Z,337.50
2019-01-20T08:44:39.873Z,337.50
2019-01-20T08:45:39.799Z,315.00
2019-01-20T08:46:39.795Z,180.00
2019-01-20T08:47:39.874Z,22.50
2019-01-20T08:48:39.866Z,22.50
2019-01-20T08:49:39.798Z,22.50
2019-01-20T08:50:39.870Z,22.50
2019-01-20T08:51:39.800Z,22.50
2019-01-20T08:52:39.873Z,180.00
2019-01-20T08:53:39.868Z,315.00
2019-01-20T08:54:39.802Z,247.50
2019-01-20T08:55:39.865Z,67.50
2019-01-20T08:56:39.803Z,112.50
2019-01-20T08:57:39.877Z,22.50
2019-01-20T08:58:39.866Z,22.50
2019-01-20T08:59:39.805Z,337.50
2019-01-20T09:00:40.688Z,337.50
2019-01-20T09:01:39.759Z,247.50
2019-01-20T09:02:39.818Z,337.50
2019-01-20T09:03:39.875Z,292.50
2019-01-20T09:04:39.874Z,0.00
2019-01-20T09:05:39.805Z,337.50
2019-01-20T09:06:39.883Z,0.00
2019-01-20T09:07:39.816Z,337.50
2019-01-20T09:08:39.813Z,112.50
2019-01-20T09:09:39.813Z,180.00
2019-01-20T09:10:39.895Z,180.00
2019-01-20T09:11:39.777Z,157.50
2019-01-20T09:12:39.779Z,112.50
2019-01-20T09:13:40.213Z,180.00
2019-01-20T09:14:39.838Z,90.00
2019-01-20T09:15:39.783Z,112.50
2019-01-20T09:16:39.783Z,337.50
2019-01-20T09:17:39.871Z,90.00
2019-01-20T09:18:39.753Z,157.50
2019-01-20T09:19:39.777Z,135.00
2019-01-20T09:20:39.863Z,45.00
2019-01-20T09:21:39.753Z,45.00
2019-01-20T09:22:39.840Z,67.50
2019-01-20T09:23:39.784Z,157.50
2019-01-20T09:24:39.907Z,90.00
2019-01-20T09:25:39.828Z,157.50
2019-01-20T09:26:39.763Z,67.50
2019-01-20T09:27:39.869Z,90.00
2019-01-20T09:28:39.879Z,90.00
2019-01-20T09:29:40.873Z,90.00
2019-01-20T09:30:39.883Z,135.00
2019-01-20T09:31:39.820Z,90.00
2019-01-20T09:32:39.890Z,202.50
2019-01-20T09:33:39.888Z,180.00
2019-01-20T09:34:39.885Z,157.50
2019-01-20T09:35:39.814Z,67.50
2019-01-20T09:36:39.813Z,135.00
2019-01-20T09:37:39.851Z,157.50
2019-01-20T09:38:39.824Z,112.50
2019-01-20T09:39:39.894Z,157.50
2019-01-20T09:40:39.834Z,157.50
2019-01-20T09:41:39.838Z,157.50
2019-01-20T09:42:39.904Z,135.00
2019-01-20T09:43:46.808Z,157.50
2019-01-20T09:44:39.902Z,157.50
2019-01-20T09:45:39.836Z,135.00
2019-01-20T09:46:39.913Z,67.50
2019-01-20T09:47:40.860Z,157.50
2019-01-20T09:48:39.838Z,180.00
2019-01-20T09:49:39.841Z,202.50
2019-01-20T09:50:39.908Z,315.00
2019-01-20T09:51:39.912Z,202.50
2019-01-20T09:52:39.841Z,90.00
2019-01-20T09:53:39.910Z,90.00
2019-01-20T09:54:39.843Z,45.00
2019-01-20T09:55:39.846Z,112.50
2019-01-20T09:56:39.845Z,180.00
2019-01-20T09:57:39.845Z,180.00
2019-01-20T09:58:39.913Z,180.00
2019-01-20T09:59:39.832Z,135.00
2019-01-20T10:00:39.818Z,45.00
2019-01-20T10:01:39.835Z,157.50
2019-01-20T10:02:39.785Z,180.00
2019-01-20T10:03:39.805Z,135.00
2019-01-20T10:04:39.820Z,90.00
2019-01-20T10:05:39.820Z,157.50
2019-01-20T10:06:39.911Z,157.50
2019-01-20T10:07:39.820Z,157.50
2019-01-20T10:08:39.908Z,157.50
2019-01-20T10:09:39.815Z,157.50
2019-01-20T10:10:39.852Z,112.50
2019-01-20T10:11:39.817Z,45.00
2019-01-20T10:12:39.852Z,202.50
2019-01-20T10:13:39.811Z,180.00
2019-01-20T10:14:39.819Z,157.50
2019-01-20T10:15:39.793Z,157.50
2019-01-20T10:16:39.800Z,202.50
2019-01-20T10:17:39.881Z,157.50
2019-01-20T10:18:39.819Z,157.50
2019-01-20T10:19:39.938Z,202.50
2019-01-20T10:20:39.901Z,90.00
2019-01-20T10:21:39.860Z,180.00
2019-01-20T10:22:39.933Z,292.50
2019-01-20T10:23:39.864Z,247.50
2019-01-20T10:24:39.978Z,180.00
2019-01-20T10:25:39.865Z,315.00
2019-01-20T10:26:40.186Z,225.00
2019-01-20T10:27:39.865Z,157.50
2019-01-20T10:28:39.892Z,157.50
2019-01-20T10:30:39.916Z,112.50
2019-01-20T10:31:39.891Z,157.50
2019-01-20T10:32:39.877Z,135.00
2019-01-20T10:33:39.871Z,112.50
2019-01-20T10:34:39.936Z,45.00
2019-01-20T10:35:39.870Z,112.50
2019-01-20T10:36:39.943Z,135.00
2019-01-20T10:37:39.874Z,157.50
2019-01-20T10:38:39.946Z,157.50
2019-01-20T10:39:39.951Z,112.50
2019-01-20T10:40:39.939Z,67.50
2019-01-20T10:41:39.873Z,90.00
2019-01-20T10:42:39.945Z,202.50
2019-01-20T10:43:39.878Z,45.00
2019-01-20T10:44:39.951Z,157.50
2019-01-20T10:45:39.882Z,157.50
2019-01-20T10:46:39.884Z,225.00
2019-01-20T10:47:39.950Z,180.00
2019-01-20T10:48:39.947Z,180.00
2019-01-20T10:49:39.889Z,157.50
2019-01-20T10:50:39.939Z,157.50
2019-01-20T10:51:39.884Z,157.50
2019-01-20T10:52:39.870Z,157.50
2019-01-20T10:53:39.939Z,157.50
2019-01-20T10:54:39.940Z,157.50
2019-01-20T10:55:39.911Z,157.50
2019-01-20T10:56:39.940Z,180.00
2019-01-20T10:57:39.887Z,157.50
2019-01-20T10:58:39.854Z,202.50
2019-01-20T10:59:39.914Z,202.50
2019-01-20T11:00:39.961Z,180.00
2019-01-20T11:01:39.892Z,180.00
2019-01-20T11:02:39.927Z,180.00
2019-01-20T11:03:39.891Z,157.50
2019-01-20T11:04:39.960Z,157.50
2019-01-20T11:05:39.987Z,157.50
2019-01-20T11:06:39.899Z,157.50
2019-01-20T11:07:39.973Z,157.50
2019-01-20T11:08:39.897Z,112.50
2019-01-20T11:09:39.897Z,90.00
2019-01-20T11:10:40.204Z,67.50
2019-01-20T11:11:39.997Z,135.00
2019-01-20T11:12:40.956Z,112.50
2019-01-20T11:13:39.901Z,157.50
2019-01-20T11:14:39.972Z,180.00
2019-01-20T11:15:39.906Z,157.50
2019-01-20T11:16:39.971Z,135.00
2019-01-20T11:17:39.971Z,157.50
2019-01-20T11:18:39.906Z,135.00
2019-01-20T11:19:39.968Z,180.00
2019-01-20T11:20:39.988Z,225.00
2019-01-20T11:21:39.904Z,202.50
2019-01-20T11:22:39.979Z,202.50
2019-01-20T11:23:39.908Z,112.50
2019-01-20T11:24:39.909Z,180.00
2019-01-20T11:25:39.975Z,157.50
2019-01-20T11:26:39.910Z,202.50
2019-01-20T11:27:39.974Z,135.00
2019-01-20T11:28:39.903Z,157.50
2019-01-20T11:29:39.979Z,180.00
2019-01-20T11:30:39.910Z,135.00
2019-01-20T11:31:39.982Z,270.00
2019-01-20T11:32:42.500Z,180.00
2019-01-20T11:33:39.910Z,157.50
2019-01-20T11:34:39.982Z,225.00
2019-01-20T11:35:39.931Z,157.50
2019-01-20T11:36:39.989Z,135.00
2019-01-20T11:37:39.982Z,157.50
2019-01-20T11:38:39.919Z,157.50
2019-01-20T11:39:39.982Z,157.50
2019-01-20T11:40:39.850Z,112.50
2019-01-20T11:41:39.878Z,112.50
2019-01-20T11:42:39.853Z,90.00
2019-01-20T11:43:39.942Z,90.00
2019-01-20T11:44:39.949Z,90.00
2019-01-20T11:45:39.861Z,67.50
2019-01-20T11:46:39.929Z,90.00
2019-01-20T11:47:41.970Z,180.00
2019-01-20T11:48:39.923Z,202.50
2019-01-20T11:49:39.883Z,112.50
2019-01-20T11:50:39.988Z,180.00
2019-01-20T11:51:39.932Z,135.00
2019-01-20T11:52:39.926Z,135.00
2019-01-20T11:53:39.999Z,90.00
2019-01-20T11:54:39.946Z,157.50
2019-01-20T11:55:39.998Z,157.50
2019-01-20T11:56:39.933Z,180.00
2019-01-20T11:57:39.995Z,225.00
2019-01-20T11:58:39.931Z,270.00
2019-01-20T11:59:40.006Z,270.00
2019-01-20T12:00:39.929Z,180.00
2019-01-20T12:01:39.929Z,202.50
2019-01-20T12:02:40.001Z,135.00
2019-01-20T12:03:40.003Z,157.50
2019-01-20T12:04:39.943Z,202.50
2019-01-20T12:05:40.002Z,337.50
2019-01-20T12:06:40.001Z,315.00
2019-01-20T12:07:39.940Z,67.50
2019-01-20T12:08:39.981Z,247.50
2019-01-20T12:09:39.940Z,180.00
2019-01-20T12:10:40.040Z,180.00
2019-01-20T12:11:39.975Z,157.50
2019-01-20T12:12:39.940Z,90.00
2019-01-20T12:13:39.940Z,135.00
2019-01-20T12:14:40.019Z,135.00
2019-01-20T12:15:39.942Z,67.50
2019-01-20T12:16:39.942Z,90.00
2019-01-20T12:17:39.964Z,67.50
2019-01-20T12:18:40.012Z,90.00
2019-01-20T12:19:40.075Z,45.00
2019-01-20T12:20:39.946Z,225.00
2019-01-20T12:21:39.948Z,337.50
2019-01-20T12:22:40.016Z,315.00
2019-01-20T12:23:39.950Z,270.00
2019-01-20T12:24:39.948Z,247.50
2019-01-20T12:25:40.027Z,157.50
2019-01-20T12:26:39.950Z,180.00
2019-01-20T12:27:40.017Z,292.50
2019-01-20T12:28:39.952Z,180.00
2019-01-20T12:29:40.041Z,112.50
2019-01-20T12:30:39.992Z,247.50
2019-01-20T12:31:39.951Z,157.50
2019-01-20T12:32:40.041Z,135.00
2019-01-20T12:33:40.022Z,135.00
2019-01-20T12:34:39.957Z,270.00
2019-01-20T12:35:40.028Z,112.50
2019-01-20T12:36:40.025Z,292.50
2019-01-20T12:37:39.963Z,90.00
2019-01-20T12:38:40.038Z,202.50
2019-01-20T12:39:39.966Z,270.00
2019-01-20T12:40:40.026Z,270.00
2019-01-20T12:41:40.018Z,180.00
2019-01-20T12:42:39.944Z,90.00
2019-01-20T12:43:40.022Z,225.00
2019-01-20T12:44:39.903Z,202.50
2019-01-20T12:45:40.019Z,180.00
2019-01-20T12:46:40.019Z,247.50